createdAt,value
2024-03-06T00:01:11.386Z,93353.81
2024-03-06T00:03:38.562Z,93364.97
2024-03-06T00:06:06.521Z,93363.63
2024-03-06T00:08:35.400Z,93375.22
2024-03-06T00:11:03.157Z,93365.50
2024-03-06T00:13:30.314Z,93367.03
2024-03-06T00:15:57.792Z,93372.38
2024-03-06T00:18:25.002Z,93372.88
2024-03-06T00:20:54.972Z,93375.59
2024-03-06T00:23:22.273Z,93375.00
2024-03-06T00:25:51.041Z,93374.41
2024-03-06T00:28:18.176Z,93364.38
2024-03-06T00:30:45.153Z,93379.97
2024-03-06T00:33:12.260Z,93376.97
2024-03-06T00:35:39.237Z,93381.34
2024-03-06T00:38:07.635Z,93382.19
2024-03-06T00:40:34.823Z,93391.53
2024-03-06T00:43:03.410Z,93391.31
2024-03-06T00:45:30.472Z,93392.97
2024-03-06T00:47:57.806Z,93381.56
2024-03-06T00:50:25.542Z,93396.41
2024-03-06T00:52:52.607Z,93397.41
2024-03-06T00:55:19.634Z,93409.16
2024-03-06T00:57:47.435Z,93392.69
2024-03-06T01:00:17.587Z,93399.16
2024-03-06T01:02:44.649Z,93402.44
2024-03-06T01:05:12.037Z,93406.34
2024-03-06T01:07:40.502Z,93409.41
2024-03-06T01:10:10.307Z,93406.28
2024-03-06T01:12:37.730Z,93400.50
2024-03-06T01:15:06.233Z,93408.44
2024-03-06T01:17:34.768Z,93402.75
2024-03-06T01:20:02.471Z,93407.13
2024-03-06T01:22:29.620Z,93405.41
2024-03-06T01:24:56.648Z,93409.94
2024-03-06T01:27:23.733Z,93405.75
2024-03-06T01:29:50.799Z,93405.00
2024-03-06T01:32:17.896Z,93409.34
2024-03-06T01:34:46.885Z,93414.03
2024-03-06T01:37:14.135Z,93412.97
2024-03-06T01:39:41.166Z,93418.81
2024-03-06T01:42:08.199Z,93417.81
2024-03-06T01:44:35.211Z,93423.03
2024-03-06T01:47:02.278Z,93425.91
2024-03-06T01:49:36.830Z,93421.94
2024-03-06T01:52:15.109Z,93420.41
2024-03-06T01:54:43.035Z,93420.66
2024-03-06T01:57:14.436Z,93420.00
2024-03-06T01:59:42.791Z,93427.22
2024-03-06T02:02:12.367Z,93428.53
2024-03-06T02:04:39.907Z,93428.91
2024-03-06T02:07:14.024Z,93426.00
2024-03-06T02:09:41.548Z,93433.28
2024-03-06T02:12:09.578Z,93426.91
2024-03-06T02:14:37.365Z,93434.38
2024-03-06T02:17:04.608Z,93442.56
2024-03-06T02:19:42.982Z,93433.59
2024-03-06T02:22:12.625Z,93431.03
2024-03-06T02:24:46.088Z,93432.13
2024-03-06T02:27:13.333Z,93438.16
2024-03-06T02:29:40.385Z,93441.16
2024-03-06T02:32:07.451Z,93452.72
2024-03-06T02:34:34.656Z,93449.66
2024-03-06T02:37:01.749Z,93449.28
2024-03-06T02:39:30.465Z,93442.78
2024-03-06T02:41:57.862Z,93443.06
2024-03-06T02:44:25.036Z,93446.13
2024-03-06T02:46:52.363Z,93450.91
2024-03-06T02:49:20.027Z,93446.88
2024-03-06T02:51:47.429Z,93450.50
2024-03-06T02:54:15.365Z,93458.94
2024-03-06T02:56:43.816Z,93451.69
2024-03-06T02:59:11.148Z,93454.19
2024-03-06T03:01:39.545Z,93449.78
2024-03-06T03:04:07.814Z,93447.06
2024-03-06T03:06:35.389Z,93456.66
2024-03-06T03:09:04.774Z,93454.91
2024-03-06T03:11:33.256Z,93448.00
2024-03-06T03:14:01.732Z,93445.84
2024-03-06T03:16:28.818Z,93443.22
2024-03-06T03:18:56.003Z,93448.94
2024-03-06T03:21:23.599Z,93453.59
2024-03-06T03:23:50.938Z,93459.69
2024-03-06T03:26:18.110Z,93457.34
2024-03-06T03:28:45.264Z,93457.00
2024-03-06T03:31:13.844Z,93466.66
2024-03-06T03:33:41.860Z,93462.06
2024-03-06T03:36:10.560Z,93465.97
2024-03-06T03:38:42.218Z,93466.97
2024-03-06T03:41:10.107Z,93463.63
2024-03-06T03:43:37.752Z,93469.16
2024-03-06T03:46:05.561Z,93465.28
2024-03-06T03:48:38.374Z,93464.88
2024-03-06T03:51:06.695Z,93472.03
2024-03-06T03:53:34.319Z,93469.69
2024-03-06T03:56:02.129Z,93469.63
2024-03-06T03:58:29.739Z,93467.72
2024-03-06T04:00:57.386Z,93468.88
2024-03-06T04:03:25.648Z,93471.16
2024-03-06T04:05:54.231Z,93478.22
2024-03-06T04:08:21.234Z,93478.69
2024-03-06T04:10:48.446Z,93482.16
2024-03-06T04:13:17.726Z,93476.13
2024-03-06T04:15:44.972Z,93477.28
2024-03-06T04:18:12.220Z,93478.38
2024-03-06T04:20:39.549Z,93481.78
2024-03-06T04:23:08.544Z,93489.06
2024-03-06T04:25:35.749Z,93486.59
2024-03-06T04:28:03.659Z,93495.50
2024-03-06T04:30:30.860Z,93488.41
2024-03-06T04:32:58.356Z,93493.38
2024-03-06T04:35:25.475Z,93497.59
2024-03-06T04:37:53.195Z,93499.19
2024-03-06T04:40:23.462Z,93497.22
2024-03-06T04:42:50.733Z,93499.03
2024-03-06T04:45:18.769Z,93498.41
2024-03-06T04:47:46.179Z,93490.97
2024-03-06T04:50:15.664Z,93501.22
2024-03-06T04:52:43.757Z,93499.28
2024-03-06T04:55:15.404Z,93503.25
2024-03-06T04:57:46.149Z,93506.03
2024-03-06T05:00:14.185Z,93501.22
2024-03-06T06:02:01.000Z,93538.38
2024-03-06T06:04:28.094Z,93537.41
2024-03-06T06:06:55.312Z,93544.72
2024-03-06T06:09:22.738Z,93549.13
2024-03-06T06:11:51.760Z,93544.50
2024-03-06T06:14:18.806Z,93539.69
2024-03-06T06:16:45.882Z,93565.78
2024-03-06T06:19:14.260Z,93569.38
2024-03-06T06:21:44.539Z,93568.09
2024-03-06T06:24:11.739Z,93571.44
2024-03-06T06:26:39.002Z,93575.88
2024-03-06T06:29:06.394Z,93577.41
2024-03-06T06:31:33.476Z,93585.19
2024-03-06T06:34:00.709Z,93585.16
2024-03-06T06:36:29.169Z,93576.31
2024-03-06T06:38:56.332Z,93585.31
2024-03-06T06:41:24.196Z,93586.38
2024-03-06T06:43:53.500Z,93584.63
2024-03-06T06:46:22.170Z,93597.06
2024-03-06T06:48:50.163Z,93593.16
2024-03-06T06:51:17.303Z,93594.13
2024-03-06T06:53:45.778Z,93605.38
2024-03-06T06:56:13.272Z,93593.31
2024-03-06T06:58:43.901Z,93589.06
2024-03-06T07:01:11.217Z,93603.44
2024-03-06T07:03:38.216Z,93606.84
2024-03-06T07:06:07.401Z,93608.13
2024-03-06T07:08:34.693Z,93601.19
2024-03-06T07:11:03.296Z,93608.72
2024-03-06T07:13:30.409Z,93611.97
2024-03-06T07:15:57.785Z,93608.72
2024-03-06T07:18:25.047Z,93617.59
2024-03-06T07:20:52.222Z,93621.81
2024-03-06T07:23:19.634Z,93620.19
2024-03-06T07:25:46.764Z,93624.84
2024-03-06T07:28:15.115Z,93630.38
2024-03-06T07:30:42.503Z,93625.72
2024-03-06T07:33:10.053Z,93624.22
2024-03-06T07:35:37.511Z,93632.13
2024-03-06T07:38:05.876Z,93629.28
2024-03-06T07:40:33.224Z,93641.19
2024-03-06T07:43:00.925Z,93644.34
2024-03-06T07:45:30.494Z,93637.91
2024-03-06T07:47:57.778Z,93646.84
2024-03-06T07:50:27.271Z,93646.50
2024-03-06T07:52:56.079Z,93651.84
2024-03-06T07:55:23.645Z,93652.13
2024-03-06T07:57:50.777Z,93656.25
2024-03-06T08:00:20.941Z,93663.38
2024-03-06T08:02:51.273Z,93655.78
2024-03-06T08:05:19.178Z,93670.03
2024-03-06T08:07:47.181Z,93663.63
2024-03-06T08:10:15.455Z,93668.38
2024-03-06T08:12:43.116Z,93669.88
2024-03-06T08:15:15.127Z,93664.75
2024-03-06T08:17:44.817Z,93672.28
2024-03-06T08:20:14.182Z,93666.75
2024-03-06T08:22:43.925Z,93676.16
2024-03-06T08:25:12.983Z,93675.06
2024-03-06T08:27:42.314Z,93673.00
2024-03-06T08:30:10.688Z,93684.84
2024-03-06T08:32:39.032Z,93687.63
2024-03-06T08:35:12.136Z,93681.41
2024-03-06T08:37:41.754Z,93688.25
2024-03-06T08:40:19.892Z,93682.63
2024-03-06T08:42:50.402Z,93689.97
2024-03-06T08:45:18.229Z,93700.03
2024-03-06T08:47:47.890Z,93690.63
2024-03-06T08:50:16.031Z,93690.31
2024-03-06T08:52:47.350Z,93690.78
2024-03-06T08:55:15.040Z,93693.22
2024-03-06T08:57:42.845Z,93687.97
2024-03-06T09:00:15.929Z,93701.25
2024-03-06T09:02:43.839Z,93710.50
2024-03-06T09:05:13.836Z,93707.69
2024-03-06T09:07:44.837Z,93710.38
2024-03-06T09:10:14.350Z,93706.44
2024-03-06T09:12:42.651Z,93716.19
2024-03-06T09:15:11.135Z,93721.13
2024-03-06T09:17:38.800Z,93718.94
2024-03-06T09:20:14.354Z,93721.91
2024-03-06T09:22:44.264Z,93717.94
2024-03-06T09:25:15.909Z,93735.25
2024-03-06T09:27:44.405Z,93730.75
2024-03-06T09:30:14.620Z,93735.22
2024-03-06T09:32:43.246Z,93743.78
2024-03-06T09:35:10.886Z,93735.47
2024-03-06T09:37:38.045Z,93739.44
2024-03-06T09:40:08.874Z,93733.97
2024-03-06T09:42:37.609Z,93744.38
2024-03-06T09:45:06.502Z,93738.41
2024-03-06T09:47:37.165Z,93742.91
2024-03-06T09:50:10.256Z,93747.00
2024-03-06T09:52:40.316Z,93750.66
2024-03-06T09:55:11.100Z,93755.84
2024-03-06T09:57:39.817Z,93754.06
2024-03-06T10:00:09.545Z,93755.53
2024-03-06T10:02:50.454Z,93757.34
2024-03-06T10:05:24.894Z,93757.63
2024-03-06T10:07:53.485Z,93758.81
2024-03-06T10:10:21.931Z,93748.53
2024-03-06T10:12:50.984Z,93751.53
2024-03-06T10:15:18.513Z,93760.31
2024-03-06T10:17:50.374Z,93755.44
2024-03-06T10:20:23.345Z,93749.38
2024-03-06T10:22:58.623Z,93757.25
2024-03-06T10:25:28.352Z,93761.91
2024-03-06T10:28:08.334Z,93754.19
2024-03-06T10:30:37.021Z,93756.72
2024-03-06T10:33:05.735Z,93761.03
2024-03-06T10:35:33.060Z,93760.56
2024-03-06T10:38:05.743Z,93766.75
2024-03-06T10:40:34.898Z,93763.09
2024-03-06T10:43:04.113Z,93768.47
2024-03-06T10:45:45.135Z,93760.25
2024-03-06T10:48:15.591Z,93770.75
2024-03-06T10:50:45.477Z,93760.25
2024-03-06T10:53:18.651Z,93779.97
2024-03-06T10:55:51.441Z,93755.25
2024-03-06T10:58:23.625Z,93766.34
2024-03-06T11:00:53.495Z,93771.00
2024-03-06T11:03:21.219Z,93778.72
2024-03-06T11:05:49.188Z,93775.09
2024-03-06T11:08:18.485Z,93777.19
2024-03-06T11:10:46.964Z,93774.44
2024-03-06T11:13:24.580Z,93763.94
2024-03-06T11:15:54.955Z,93767.47
2024-03-06T11:18:46.393Z,93765.41
2024-03-06T11:21:30.630Z,93769.16
2024-03-06T11:24:21.241Z,93764.56
2024-03-06T11:26:58.542Z,93766.25
2024-03-06T11:29:29.247Z,93769.38
2024-03-06T11:32:03.828Z,93764.31
2024-03-06T11:34:34.405Z,93749.94
2024-03-06T11:37:06.189Z,93767.63
2024-03-06T11:39:36.654Z,93765.28
2024-03-06T11:42:09.850Z,93758.81
2024-03-06T11:44:38.230Z,93756.50
2024-03-06T11:47:10.196Z,93757.34
2024-03-06T11:49:38.983Z,93766.16
2024-03-06T11:52:11.891Z,93775.94
2024-03-06T11:54:40.115Z,93765.31
2024-03-06T11:57:07.993Z,93772.44
2024-03-06T11:59:39.865Z,93772.84
2024-03-06T12:02:11.309Z,93763.38
2024-03-06T12:04:39.792Z,93762.25
2024-03-06T12:07:08.050Z,93756.81
2024-03-06T12:09:41.167Z,93768.44
2024-03-06T12:12:10.872Z,93765.19
2024-03-06T12:14:41.130Z,93776.75
2024-03-06T12:17:16.635Z,93766.69
2024-03-06T12:19:46.484Z,93763.88
2024-03-06T12:22:16.058Z,93765.38
2024-03-06T12:24:43.962Z,93761.88
2024-03-06T12:27:11.102Z,93761.94
2024-03-06T12:29:39.090Z,93766.03
2024-03-06T12:32:19.729Z,93766.88
2024-03-06T12:34:59.909Z,93766.75
2024-03-06T12:37:34.734Z,93761.59
2024-03-06T12:40:05.600Z,93768.72
2024-03-06T12:42:33.615Z,93761.06
2024-03-06T12:45:00.814Z,93770.38
2024-03-06T12:47:29.316Z,93770.34
2024-03-06T12:49:57.012Z,93770.91
2024-03-06T12:52:24.521Z,93772.63
2024-03-06T12:54:51.741Z,93768.31
2024-03-06T12:59:46.175Z,93774.03
2024-03-06T13:02:13.547Z,93761.19
2024-03-06T13:04:42.038Z,93763.19
2024-03-06T13:07:09.189Z,93769.66
2024-03-06T13:09:36.214Z,93759.69
2024-03-06T13:12:03.693Z,93771.88
2024-03-06T13:14:32.232Z,93771.00
2024-03-06T13:16:59.592Z,93767.53
2024-03-06T13:19:26.857Z,93764.81
2024-03-06T13:21:55.951Z,93760.41
2024-03-06T13:24:23.412Z,93762.19
2024-03-06T13:26:51.456Z,93765.00
2024-03-06T13:29:19.018Z,93775.53
2024-03-06T13:31:46.097Z,93775.94
2024-03-06T13:34:13.217Z,93761.41
2024-03-06T13:36:40.321Z,93773.41
2024-03-06T13:39:08.710Z,93772.84
2024-03-06T13:41:35.880Z,93769.72
2024-03-06T13:44:03.168Z,93766.63
2024-03-06T13:46:30.269Z,93766.63
2024-03-06T13:48:57.348Z,93765.13
2024-03-06T13:51:24.542Z,93765.97
2024-03-06T13:53:51.716Z,93768.81
2024-03-06T13:56:20.338Z,93755.53
2024-03-06T13:58:47.419Z,93755.69
2024-03-06T14:01:17.300Z,93759.56
2024-03-06T14:03:47.068Z,93759.09
2024-03-06T14:06:14.170Z,93746.47
2024-03-06T14:08:42.788Z,93752.34
2024-03-06T14:11:10.346Z,93752.38
2024-03-06T14:13:39.361Z,93755.34
2024-03-06T14:16:07.336Z,93769.59
2024-03-06T14:18:35.328Z,93759.41
2024-03-06T14:21:02.486Z,93749.75
2024-03-06T14:23:31.025Z,93758.00
2024-03-06T14:25:58.185Z,93763.00
2024-03-06T14:28:25.742Z,93763.63
2024-03-06T14:30:54.444Z,93756.81
2024-03-06T14:33:21.702Z,93758.88
2024-03-06T14:35:50.560Z,93759.84
2024-03-06T14:38:17.724Z,93772.63
2024-03-06T14:40:45.533Z,93766.72
2024-03-06T14:43:13.539Z,93776.19
2024-03-06T14:45:43.553Z,93761.81
2024-03-06T14:48:12.625Z,93765.91
2024-03-06T14:50:39.837Z,93763.25
2024-03-06T14:53:07.106Z,93764.22
2024-03-06T14:55:35.031Z,93767.06
2024-03-06T14:58:02.310Z,93773.47
2024-03-06T15:00:29.660Z,93763.81
2024-03-06T15:02:59.429Z,93770.50
2024-03-06T15:05:28.732Z,93777.44
2024-03-06T15:07:55.969Z,93770.28
2024-03-06T15:10:23.506Z,93778.97
2024-03-06T15:12:52.225Z,93768.50
2024-03-06T15:15:20.511Z,93756.94
2024-03-06T15:17:48.486Z,93763.19
2024-03-06T15:20:18.402Z,93758.09
2024-03-06T15:22:48.281Z,93781.47
2024-03-06T15:25:18.643Z,93791.59
2024-03-06T15:27:48.263Z,93781.53
2024-03-06T15:30:15.724Z,93771.25
2024-03-06T15:32:43.025Z,93788.56
2024-03-06T15:35:10.374Z,93777.59
2024-03-06T15:37:38.020Z,93785.00
2024-03-06T15:40:10.926Z,93779.34
2024-03-06T15:42:38.878Z,93776.19
2024-03-06T15:45:07.254Z,93783.16
2024-03-06T15:47:35.578Z,93784.53
2024-03-06T15:50:03.063Z,93795.13
2024-03-06T15:52:30.377Z,93789.09
2024-03-06T15:54:58.073Z,93790.84
2024-03-06T15:57:26.965Z,93785.91
2024-03-06T15:59:54.192Z,93783.84
2024-03-06T16:02:21.319Z,93787.66
2024-03-06T16:04:48.576Z,93782.91
2024-03-06T16:07:15.719Z,93789.47
2024-03-06T16:09:42.834Z,93787.38
2024-03-06T16:12:10.012Z,93784.47
2024-03-06T16:14:38.450Z,93791.44
2024-03-06T16:17:07.716Z,93790.91
2024-03-06T16:19:38.992Z,93795.00
2024-03-06T16:22:13.288Z,93794.09
2024-03-06T16:24:40.763Z,93796.94
2024-03-06T16:27:07.863Z,93797.03
2024-03-06T16:29:35.307Z,93805.66
2024-03-06T16:32:07.196Z,93798.88
2024-03-06T16:34:34.670Z,93813.59
2024-03-06T16:37:06.333Z,93810.03
2024-03-06T16:39:33.638Z,93814.97
2024-03-06T16:42:01.025Z,93813.31
2024-03-06T16:44:28.211Z,93826.69
2024-03-06T16:46:55.401Z,93808.44
2024-03-06T16:49:23.945Z,93815.44
2024-03-06T16:51:51.062Z,93816.78
2024-03-06T16:54:18.730Z,93810.66
2024-03-06T16:56:45.908Z,93810.13
2024-03-06T16:59:13.254Z,93820.81
2024-03-06T17:01:40.505Z,93816.13
2024-03-06T17:04:08.482Z,93818.66
2024-03-06T17:06:36.991Z,93812.44
2024-03-06T17:09:06.461Z,93817.91
2024-03-06T17:11:34.107Z,93825.25
2024-03-06T17:14:01.224Z,93826.91
2024-03-06T17:16:28.253Z,93817.88
2024-03-06T17:18:55.365Z,93823.66
2024-03-06T17:21:22.497Z,93824.75
2024-03-06T17:23:53.032Z,93821.63
2024-03-06T17:26:20.306Z,93832.66
2024-03-06T17:28:50.253Z,93827.19
2024-03-06T17:31:19.250Z,93833.84
2024-03-06T17:33:46.285Z,93833.72
2024-03-06T17:36:13.791Z,93835.19
2024-03-06T17:38:42.617Z,93831.47
2024-03-06T17:41:11.207Z,93836.47
2024-03-06T17:43:38.672Z,93828.66
2024-03-06T17:46:06.917Z,93838.00
2024-03-06T17:48:34.645Z,93834.97
2024-03-06T17:51:01.903Z,93836.41
2024-03-06T17:53:29.310Z,93837.72
2024-03-06T17:55:56.621Z,93844.41
2024-03-06T17:58:24.970Z,93832.25
2024-03-06T18:00:52.150Z,93845.66
2024-03-06T18:03:21.908Z,93847.00
2024-03-06T18:05:49.557Z,93849.94
2024-03-06T18:08:16.748Z,93848.88
2024-03-06T18:10:43.900Z,93857.09
2024-03-06T18:13:10.989Z,93862.53
2024-03-06T18:15:39.742Z,93855.78
2024-03-06T18:18:07.281Z,93855.25
2024-03-06T18:20:34.513Z,93849.75
2024-03-06T18:23:01.653Z,93858.63
2024-03-06T18:25:29.944Z,93859.88
2024-03-06T18:27:57.445Z,93854.22
2024-03-06T18:30:24.671Z,93857.28
2024-03-06T18:32:53.110Z,93863.41
2024-03-06T18:35:20.380Z,93865.66
2024-03-06T18:37:49.059Z,93871.69
2024-03-06T18:40:16.799Z,93870.66
2024-03-06T18:42:44.496Z,93863.13
2024-03-06T18:45:11.851Z,93867.41
2024-03-06T18:47:39.218Z,93858.69
2024-03-06T18:50:09.026Z,93861.50
2024-03-06T18:52:36.148Z,93866.56
2024-03-06T18:55:03.858Z,93871.16
2024-03-06T18:57:30.989Z,93876.78
2024-03-06T18:59:58.425Z,93871.66
2024-03-06T19:02:25.681Z,93873.19
2024-03-06T19:04:54.053Z,93878.56
2024-03-06T19:07:22.786Z,93878.56
2024-03-06T19:09:49.771Z,93883.75
2024-03-06T19:12:17.095Z,93885.19
2024-03-06T19:14:45.434Z,93887.97
2024-03-06T19:17:13.317Z,93889.84
2024-03-06T19:19:40.627Z,93887.34
2024-03-06T19:22:10.699Z,93895.97
2024-03-06T19:24:39.131Z,93895.34
2024-03-06T19:27:06.325Z,93901.56
2024-03-06T19:29:33.649Z,93899.38
2024-03-06T19:32:03.790Z,93911.84
2024-03-06T19:34:34.798Z,93916.41
2024-03-06T19:37:02.186Z,93916.25
2024-03-06T19:39:29.330Z,93916.91
2024-03-06T19:41:59.207Z,93913.78
2024-03-06T19:44:29.491Z,93917.66
2024-03-06T19:46:56.795Z,93913.28
2024-03-06T19:49:24.327Z,93911.59
2024-03-06T19:51:52.913Z,93922.50
2024-03-06T19:54:19.982Z,93919.66
2024-03-06T19:56:50.139Z,93917.31
2024-03-06T19:59:18.738Z,93921.13
2024-03-06T20:01:45.871Z,93915.50
2024-03-06T20:04:13.558Z,93924.69
2024-03-06T20:06:40.681Z,93920.03
2024-03-06T20:09:09.320Z,93922.97
2024-03-06T20:11:36.597Z,93927.50
2024-03-06T20:14:04.026Z,93930.75
2024-03-06T20:16:32.640Z,93928.75
2024-03-06T20:19:00.607Z,93924.19
2024-03-06T20:21:28.093Z,93930.22
2024-03-06T20:23:55.524Z,93930.03
2024-03-06T20:26:22.725Z,93932.22
2024-03-06T20:28:51.666Z,93931.56
2024-03-06T20:31:19.058Z,93932.78
2024-03-06T20:33:47.454Z,93934.22
2024-03-06T20:36:14.651Z,93931.72
2024-03-06T20:38:41.838Z,93918.84
2024-03-06T20:41:09.099Z,93929.25
2024-03-06T20:43:40.301Z,93930.31
2024-03-06T20:46:09.019Z,93938.06
2024-03-06T20:48:36.985Z,93938.88
2024-03-06T20:51:10.270Z,93929.31
2024-03-06T20:53:37.580Z,93942.81
2024-03-06T20:56:07.340Z,93938.75
2024-03-06T20:58:34.693Z,93929.28
2024-03-06T21:01:05.025Z,93942.34
2024-03-06T21:03:32.651Z,93927.69
2024-03-06T21:05:59.793Z,93928.31
2024-03-06T21:08:28.559Z,93927.41
2024-03-06T21:10:55.811Z,93941.16
2024-03-06T21:13:22.919Z,93927.59
2024-03-06T21:15:49.954Z,93943.50
2024-03-06T21:18:17.193Z,93933.00
2024-03-06T21:20:44.798Z,93935.06
2024-03-06T21:23:12.177Z,93930.66
2024-03-06T21:25:40.717Z,93932.72
2024-03-06T21:28:08.083Z,93932.84
2024-03-06T21:30:35.144Z,93927.69
2024-03-06T21:33:02.310Z,93926.75
2024-03-06T21:35:30.096Z,93927.41
2024-03-06T21:37:57.352Z,93926.16
2024-03-06T21:40:25.374Z,93932.34
2024-03-06T21:42:54.043Z,93933.00
2024-03-06T21:45:21.273Z,93936.63
2024-03-06T21:47:48.351Z,93930.22
2024-03-06T21:50:17.014Z,93926.75
2024-03-06T21:52:44.053Z,93949.47
2024-03-06T21:55:13.444Z,93940.53
2024-03-06T21:57:40.776Z,93947.47
2024-03-06T22:00:14.736Z,93942.91
2024-03-06T22:02:41.995Z,93942.25
2024-03-06T22:05:10.117Z,93940.19
2024-03-06T22:07:38.228Z,93935.88
2024-03-06T22:10:08.926Z,93936.66
2024-03-06T22:12:36.796Z,93939.91
2024-03-06T22:15:04.494Z,93944.13
2024-03-06T22:17:33.361Z,93939.47
2024-03-06T22:20:00.704Z,93936.31
2024-03-06T22:22:27.970Z,93937.81
2024-03-06T22:24:55.117Z,93940.22
2024-03-06T22:27:22.321Z,93933.81
2024-03-06T22:29:49.588Z,93938.56
2024-03-06T22:32:17.948Z,93935.63
2024-03-06T22:34:46.594Z,93935.47
2024-03-06T22:37:13.737Z,93937.50
2024-03-06T22:39:41.209Z,93932.06
2024-03-06T22:42:08.323Z,93929.47
2024-03-06T22:44:38.782Z,93930.91
2024-03-06T22:47:08.300Z,93931.94
2024-03-06T22:49:36.136Z,93928.81
2024-03-06T22:52:04.989Z,93926.91
2024-03-06T22:54:32.391Z,93924.34
2024-03-06T22:56:59.927Z,93924.41
2024-03-06T22:59:27.055Z,93924.25
2024-03-06T23:01:54.312Z,93926.53
2024-03-06T23:04:21.509Z,93917.06
2024-03-06T23:06:49.819Z,93916.84
2024-03-06T23:09:18.539Z,93917.09
2024-03-06T23:11:45.645Z,93915.06
2024-03-06T23:14:13.021Z,93918.06
2024-03-06T23:16:40.085Z,93919.44
2024-03-06T23:19:07.206Z,93916.38
2024-03-06T23:21:36.565Z,93913.13
2024-03-06T23:24:05.116Z,93918.25
2024-03-06T23:26:33.706Z,93916.25
2024-03-06T23:29:01.156Z,93923.09
2024-03-06T23:31:28.556Z,93917.00
2024-03-06T23:33:55.928Z,93912.19
2024-03-06T23:36:22.988Z,93915.16
2024-03-06T23:38:50.474Z,93909.84
2024-03-06T23:41:20.792Z,93915.31
2024-03-06T23:43:49.300Z,93910.78
2024-03-06T23:46:16.383Z,93911.09
2024-03-06T23:48:43.677Z,93928.28
2024-03-06T23:51:11.206Z,93919.22
2024-03-06T23:53:38.396Z,93918.44
2024-03-06T23:56:07.270Z,93912.34
2024-03-06T23:58:34.501Z,93919.69
